Terminal Aerodrome Forecast
Issued by NWS

Home | Current Version | Previous Version | Text Only | Print | Product List | Glossary On
Versions: 1 2 3 4 5 6 7 8 9 10 11 12 13
000
FTUS44 KJAN 232332
TAFGTR
TAF
KGTR 232332Z 2400/2424 31012KT P6SM OVC017
     FM240600 34006KT P6SM OVC009
     FM241200 33009KT P6SM OVC007
     FM241400 34008KT P6SM BKN015
     FM242200 34009KT P6SM SCT250=

USA.gov is the U.S. government's official web portal to all federal, state and local government web resources and services.